Terminal Aerodrome Forecast
Issued by NWS

Home | Current Version | Previous Version | Text Only | Print | Product List | Glossary On
Versions: 1 2 3 4 5 6 7 8 9 10 11 12 13 14 15 16 17
000
FTUS43 KDTX 251723
TAFPTK
TAF
KPTK 251723Z 2518/2618 34012G18KT P6SM BKN025 BKN040
     FM252300 32007KT P6SM SCT045
     FM261000 27003KT 3SM BR SKC
     FM261300 26005KT P6SM SKC=

USA.gov is the U.S. government's official web portal to all federal, state and local government web resources and services.